Time;durP1;ratioP1;P1;durP2;ratioP2;P2;SDS_P1;SDS_P2;PMS_P1;PMS_P2;Temp;Humidity;BMP_temperature;BMP_pressure;BME280_temperature;BME280_humidity;BME280_pressure;Samples;Min_cycle;Max_cycle;Signal;HPM_P1;HPM_P2
2021/08/11 00:00:52;;;;;;;9.17;5.37;;;17.00;97.30;;;;;;5044737;28;20183;-80
2021/08/11 00:03:17;;;;;;;8.40;4.20;;;17.10;97.30;;;;;;5045822;28;20172;-80
2021/08/11 00:05:43;;;;;;;8.83;4.67;;;17.10;97.30;;;;;;5044247;28;20200;-80
2021/08/11 00:08:09;;;;;;;8.90;5.23;;;17.00;97.30;;;;;;5044619;28;20192;-80
2021/08/11 00:10:35;;;;;;;9.03;5.10;;;17.00;97.30;;;;;;5043152;28;20580;-80
2021/08/11 00:13:00;;;;;;;6.67;4.87;;;17.00;97.30;;;;;;5060167;28;20172;-83
2021/08/11 00:15:26;;;;;;;10.43;4.70;;;16.90;97.30;;;;;;5038528;28;20184;-83
2021/08/11 00:17:51;;;;;;;9.10;5.00;;;16.90;97.30;;;;;;5038613;28;20222;-82
2021/08/11 00:20:17;;;;;;;9.73;4.43;;;16.90;97.30;;;;;;5039489;28;20180;-82
2021/08/11 00:22:42;;;;;;;10.10;4.73;;;16.80;97.30;;;;;;5039564;28;20198;-81
2021/08/11 00:25:09;;;;;;;8.70;4.60;;;16.80;97.30;;;;;;5040891;28;20200;-81
2021/08/11 00:27:34;;;;;;;12.90;5.10;;;16.80;97.30;;;;;;5040294;28;20210;-81
2021/08/11 00:30:01;;;;;;;8.50;4.90;;;16.80;97.30;;;;;;5039459;28;20782;-81
2021/08/11 00:32:27;;;;;;;8.30;5.00;;;16.80;97.30;;;;;;5039474;28;20176;-82
2021/08/11 00:34:54;;;;;;;10.00;5.60;;;16.80;97.30;;;;;;5039307;28;20458;-81
2021/08/11 00:37:19;;;;;;;9.43;4.83;;;16.70;97.30;;;;;;5039693;28;20456;-82
2021/08/11 00:39:45;;;;;;;10.40;5.50;;;16.60;97.30;;;;;;5038892;28;20438;-82
2021/08/11 00:42:11;;;;;;;9.63;5.40;;;16.60;97.30;;;;;;5039672;28;20176;-82
2021/08/11 00:44:36;;;;;;;12.07;6.30;;;16.60;97.30;;;;;;5039578;28;20207;-81
2021/08/11 00:47:05;;;;;;;11.27;5.87;;;16.60;97.30;;;;;;5039049;28;20566;-82
2021/08/11 00:49:30;;;;;;;13.93;6.50;;;16.50;97.30;;;;;;5037723;28;20673;-82
2021/08/11 00:51:56;;;;;;;12.53;6.07;;;16.50;97.30;;;;;;5038662;28;20476;-82
2021/08/11 00:54:22;;;;;;;12.90;6.43;;;16.50;97.30;;;;;;5037894;28;20179;-82
2021/08/11 00:56:49;;;;;;;11.90;5.70;;;16.50;97.30;;;;;;5039687;28;20248;-82
2021/08/11 00:59:17;;;;;;;9.23;5.40;;;16.50;97.30;;;;;;5040082;28;20518;-82
2021/08/11 01:01:46;;;;;;;13.20;5.20;;;16.50;97.30;;;;;;5058022;28;20418;-82
2021/08/11 01:04:13;;;;;;;12.63;5.70;;;16.40;97.30;;;;;;5039137;28;20407;-82
2021/08/11 01:06:40;;;;;;;8.57;4.73;;;16.40;97.30;;;;;;5038188;28;20419;-82
2021/08/11 01:09:06;;;;;;;9.37;4.50;;;16.30;97.30;;;;;;5039684;28;20969;-82
2021/08/11 01:11:32;;;;;;;9.20;4.77;;;16.30;97.30;;;;;;5038909;28;20442;-82
2021/08/11 01:13:58;;;;;;;10.23;4.20;;;16.30;97.30;;;;;;5057134;28;20449;-82
2021/08/11 01:16:24;;;;;;;10.00;4.60;;;16.40;97.30;;;;;;5038461;28;20597;-82
2021/08/11 01:18:49;;;;;;;8.50;4.20;;;16.40;97.30;;;;;;5056239;28;20438;-82
2021/08/11 01:21:29;;;;;;;8.20;4.40;;;16.40;97.30;;;;;;5038366;28;20670;-82
2021/08/11 01:24:07;;;;;;;7.00;4.00;;;16.30;97.30;;;;;;5038520;28;20182;-82
2021/08/11 01:27:06;;;;;;;14.67;4.50;;;16.30;97.30;;;;;;5038893;28;20504;-82
2021/08/11 01:30:05;;;;;;;8.87;4.77;;;16.30;97.30;;;;;;5038279;28;20943;-82
2021/08/11 01:32:55;;;;;;;9.33;4.37;;;16.20;97.30;;;;;;5037790;28;20418;-82
2021/08/11 01:35:24;;;;;;;7.80;4.33;;;16.10;97.30;;;;;;5038510;28;20867;-82
2021/08/11 01:37:54;;;;;;;8.50;4.80;;;16.10;97.30;;;;;;5037985;28;20442;-82
2021/08/11 01:40:26;;;;;;;8.60;4.80;;;16.00;97.30;;;;;;5038485;28;20478;-82
2021/08/11 01:42:54;;;;;;;6.70;4.03;;;16.00;97.30;;;;;;5037608;28;20412;-82
2021/08/11 01:45:24;;;;;;;6.47;3.97;;;16.00;97.30;;;;;;5038037;28;20462;-81
2021/08/11 01:48:25;;;;;;;8.10;4.63;;;16.00;97.30;;;;;;5037582;28;20462;-82
2021/08/11 01:50:51;;;;;;;8.00;4.37;;;15.90;97.30;;;;;;4983229;28;20441;-82
2021/08/11 01:53:19;;;;;;;13.10;4.63;;;15.90;97.30;;;;;;5037521;28;20414;-82
2021/08/11 01:55:50;;;;;;;8.20;4.43;;;15.90;97.30;;;;;;5055278;28;20410;-82
2021/08/11 01:58:15;;;;;;;9.00;4.27;;;15.90;97.30;;;;;;5037817;28;20865;-82
2021/08/11 02:00:41;;;;;;;7.80;4.10;;;15.90;97.30;;;;;;5038402;28;20517;-81
2021/08/11 02:03:09;;;;;;;7.70;3.97;;;15.90;97.30;;;;;;5038374;28;20176;-82
2021/08/11 02:05:36;;;;;;;7.77;4.87;;;16.00;97.30;;;;;;5037543;28;20210;-82
2021/08/11 02:08:03;;;;;;;7.90;4.17;;;15.90;97.30;;;;;;5036995;28;20528;-82
2021/08/11 02:10:30;;;;;;;8.40;4.40;;;15.90;97.30;;;;;;5037216;28;20411;-82
2021/08/11 02:12:56;;;;;;;12.60;4.13;;;15.90;97.30;;;;;;5037124;28;20411;-82
2021/08/11 02:15:21;;;;;;;9.67;4.30;;;15.90;97.30;;;;;;5037404;28;20425;-82
2021/08/11 02:17:47;;;;;;;11.43;4.73;;;15.90;97.30;;;;;;5040499;28;20450;-81
2021/08/11 02:20:15;;;;;;;10.17;4.70;;;15.90;97.30;;;;;;5036155;28;20221;-82
2021/08/11 02:22:41;;;;;;;8.30;4.60;;;15.90;97.30;;;;;;5035607;28;20193;-83
2021/08/11 02:25:09;;;;;;;8.70;4.00;;;15.90;97.30;;;;;;5053674;28;20450;-82
2021/08/11 02:27:55;;;;;;;9.43;4.33;;;16.00;97.30;;;;;;5035357;28;20407;-82
2021/08/11 02:30:24;;;;;;;8.10;4.40;;;15.90;97.30;;;;;;5034881;28;20410;-83
2021/08/11 02:33:11;;;;;;;7.27;4.30;;;15.90;97.30;;;;;;5034756;28;20410;-82
2021/08/11 02:35:57;;;;;;;10.80;4.30;;;15.80;97.30;;;;;;5034328;28;20513;-83
2021/08/11 02:38:33;;;;;;;6.57;4.37;;;15.80;97.30;;;;;;5035331;28;20466;-82
2021/08/11 02:41:10;;;;;;;9.10;4.80;;;15.80;97.30;;;;;;5035435;28;20432;-83
2021/08/11 02:43:42;;;;;;;9.47;4.87;;;15.80;97.30;;;;;;5036102;28;20427;-82
2021/08/11 02:46:12;;;;;;;7.43;4.40;;;15.80;97.30;;;;;;5035460;28;21046;-82
2021/08/11 02:48:39;;;;;;;6.87;3.97;;;15.70;97.30;;;;;;5034642;28;20433;-82
2021/08/11 02:51:08;;;;;;;7.50;3.60;;;15.70;97.30;;;;;;5035655;28;20422;-81
2021/08/11 02:53:36;;;;;;;8.67;4.17;;;15.70;97.30;;;;;;5035389;28;20924;-82
2021/08/11 02:56:02;;;;;;;7.73;4.17;;;15.70;97.30;;;;;;5034843;28;20769;-82
2021/08/11 02:58:29;;;;;;;8.50;3.90;;;15.70;97.30;;;;;;5035055;28;20799;-82
2021/08/11 03:00:57;;;;;;;8.13;4.10;;;15.70;97.30;;;;;;5034641;28;20422;-82
2021/08/11 03:03:23;;;;;;;11.87;5.07;;;15.60;97.30;;;;;;5035019;28;20464;-82
2021/08/11 03:05:48;;;;;;;11.53;4.47;;;15.50;97.30;;;;;;5052774;28;20454;-82
2021/08/11 03:08:15;;;;;;;8.53;4.57;;;15.50;97.30;;;;;;5034253;28;20438;-82
2021/08/11 03:10:41;;;;;;;9.73;4.93;;;15.50;97.30;;;;;;5035038;28;20180;-82
2021/08/11 03:13:10;;;;;;;9.30;5.10;;;15.50;97.30;;;;;;5052568;28;20501;-82
2021/08/11 03:15:36;;;;;;;9.57;4.90;;;15.50;97.30;;;;;;5034870;28;20176;-82
2021/08/11 03:18:02;;;;;;;6.73;4.03;;;15.50;97.30;;;;;;5038145;28;20472;-83
2021/08/11 03:20:30;;;;;;;7.77;4.40;;;15.40;97.30;;;;;;5037868;28;20187;-83
2021/08/11 03:22:56;;;;;;;8.20;4.50;;;15.30;97.30;;;;;;5056019;28;20238;-83
2021/08/11 03:25:22;;;;;;;10.53;4.80;;;15.30;97.30;;;;;;5037770;28;20458;-83
2021/08/11 03:27:47;;;;;;;9.37;5.20;;;15.30;97.30;;;;;;5037684;28;20498;-83
2021/08/11 03:30:14;;;;;;;8.40;4.63;;;15.20;97.30;;;;;;5037764;28;20192;-83
2021/08/11 03:32:40;;;;;;;10.33;4.80;;;15.20;97.30;;;;;;5038133;28;20183;-83
2021/08/11 03:35:06;;;;;;;18.33;5.30;;;15.20;97.30;;;;;;5053954;28;20477;-83
2021/08/11 03:37:32;;;;;;;12.87;4.97;;;15.20;97.30;;;;;;5056541;22;20635;-83
2021/08/11 03:39:58;;;;;;;10.20;5.33;;;15.10;97.30;;;;;;5057810;28;20458;-84
2021/08/11 03:42:24;;;;;;;10.90;5.03;;;15.10;97.30;;;;;;5057606;28;20346;-83
2021/08/11 03:44:50;;;;;;;11.17;4.83;;;15.10;97.30;;;;;;5058246;28;20469;-83
2021/08/11 03:47:16;;;;;;;8.93;4.80;;;15.10;97.30;;;;;;5058219;28;20413;-83
2021/08/11 03:49:45;;;;;;;10.70;4.53;;;15.20;97.30;;;;;;5058094;28;20278;-82
2021/08/11 03:52:10;;;;;;;9.17;4.83;;;15.20;97.30;;;;;;5058445;28;20194;-83
2021/08/11 03:54:36;;;;;;;11.00;4.90;;;15.20;97.30;;;;;;5058398;28;20420;-83
2021/08/11 03:57:02;;;;;;;14.23;4.80;;;15.20;97.30;;;;;;5058338;28;20172;-84
2021/08/11 03:59:27;;;;;;;11.33;5.70;;;15.10;97.30;;;;;;5054031;28;20395;-84
2021/08/11 04:01:54;;;;;;;9.87;5.27;;;15.10;97.30;;;;;;5046421;28;20274;-84
2021/08/11 04:04:20;;;;;;;11.70;5.57;;;15.10;97.30;;;;;;5049331;28;20417;-85
2021/08/11 04:06:45;;;;;;;9.33;5.03;;;15.10;97.30;;;;;;5045948;28;20432;-84
2021/08/11 04:09:11;;;;;;;11.37;5.30;;;15.10;97.30;;;;;;5067064;28;20453;-84
2021/08/11 04:11:37;;;;;;;10.60;4.80;;;15.10;97.30;;;;;;5051526;28;20175;-85
2021/08/11 04:14:02;;;;;;;10.27;5.10;;;15.10;97.30;;;;;;5048494;28;20198;-84
2021/08/11 04:16:28;;;;;;;11.70;5.27;;;15.10;97.30;;;;;;5049797;28;20176;-85
2021/08/11 04:18:53;;;;;;;11.27;4.97;;;15.10;97.30;;;;;;5047644;28;20200;-84
2021/08/11 04:21:19;;;;;;;9.73;4.40;;;15.10;97.30;;;;;;5045488;28;20725;-84
2021/08/11 04:23:45;;;;;;;11.00;5.10;;;15.10;97.30;;;;;;5060681;28;20246;-84
2021/08/11 04:26:10;;;;;;;9.33;4.50;;;15.10;97.30;;;;;;5044192;28;20292;-84
2021/08/11 04:28:36;;;;;;;7.80;5.10;;;15.10;97.30;;;;;;5046849;28;20187;-84
2021/08/11 04:31:01;;;;;;;9.67;4.67;;;15.10;97.30;;;;;;5044969;28;20176;-84
2021/08/11 04:33:28;;;;;;;9.87;5.10;;;15.10;97.30;;;;;;5052401;28;20175;-84
2021/08/11 04:35:53;;;;;;;7.93;4.37;;;15.10;97.30;;;;;;5052976;28;20204;-84
2021/08/11 04:38:19;;;;;;;9.07;5.33;;;15.10;97.30;;;;;;5056924;28;20448;-84
2021/08/11 04:40:45;;;;;;;9.20;5.23;;;15.10;97.30;;;;;;5057118;28;20183;-84
2021/08/11 04:43:11;;;;;;;12.10;5.03;;;15.10;97.30;;;;;;5057332;28;20178;-84
2021/08/11 04:45:41;;;;;;;12.73;5.20;;;15.10;97.30;;;;;;5054867;28;20450;-84
2021/08/11 04:48:07;;;;;;;11.20;5.50;;;15.10;97.30;;;;;;5054371;28;20187;-83
2021/08/11 04:50:33;;;;;;;10.77;4.83;;;15.10;97.30;;;;;;5054609;28;20957;-84
2021/08/11 04:52:58;;;;;;;8.73;5.33;;;15.10;97.30;;;;;;5073303;28;20735;-84
2021/08/11 04:55:25;;;;;;;11.90;5.70;;;15.10;97.30;;;;;;5055511;28;20632;-83
2021/08/11 04:57:50;;;;;;;13.80;5.90;;;15.10;97.30;;;;;;5055445;28;20253;-84
2021/08/11 05:00:17;;;;;;;10.00;5.33;;;15.20;97.30;;;;;;5056165;28;20422;-84
2021/08/11 05:02:42;;;;;;;14.73;5.43;;;15.20;97.30;;;;;;5055906;28;20637;-84
2021/08/11 05:05:09;;;;;;;11.60;6.20;;;15.20;97.30;;;;;;5055792;28;20665;-84
2021/08/11 05:07:34;;;;;;;9.07;5.07;;;15.20;97.30;;;;;;5055845;28;20648;-84
2021/08/11 05:10:00;;;;;;;11.83;5.40;;;15.20;97.30;;;;;;5055907;28;20504;-85
2021/08/11 05:12:27;;;;;;;12.13;6.20;;;15.20;97.30;;;;;;5055974;28;20179;-85
2021/08/11 05:14:53;;;;;;;10.17;5.60;;;15.20;97.30;;;;;;5056181;28;20183;-85
2021/08/11 05:17:21;;;;;;;15.43;6.13;;;15.20;97.30;;;;;;5055629;28;20794;-85
2021/08/11 05:19:47;;;;;;;12.83;6.00;;;15.30;97.30;;;;;;5055961;28;20449;-86
2021/08/11 05:22:14;;;;;;;11.10;5.40;;;15.30;97.30;;;;;;5055484;28;20421;-86
2021/08/11 05:24:39;;;;;;;18.77;7.50;;;15.30;97.30;;;;;;5052196;28;20427;-86
2021/08/11 05:27:05;;;;;;;14.03;6.30;;;15.30;97.30;;;;;;5052853;28;20418;-86
2021/08/11 05:29:31;;;;;;;12.37;6.37;;;15.40;97.30;;;;;;5053166;28;20281;-86
2021/08/11 05:31:57;;;;;;;11.47;6.27;;;15.40;97.30;;;;;;5052956;28;20183;-87
2021/08/11 05:34:23;;;;;;;10.83;6.63;;;15.50;97.30;;;;;;5055454;28;20433;-86
2021/08/11 05:36:48;;;;;;;12.23;7.23;;;15.50;97.30;;;;;;5046484;28;20227;-86
2021/08/11 05:39:14;;;;;;;17.83;7.27;;;15.50;97.30;;;;;;5052824;28;20253;-85
2021/08/11 05:41:40;;;;;;;15.07;8.90;;;15.60;97.30;;;;;;5052588;28;20179;-85
2021/08/11 05:44:07;;;;;;;14.37;7.73;;;15.60;97.30;;;;;;5052951;28;20442;-85
2021/08/11 05:46:33;;;;;;;14.20;7.37;;;15.60;97.30;;;;;;5069235;28;20215;-85
2021/08/11 05:48:59;;;;;;;12.13;6.30;;;15.70;97.30;;;;;;5036060;28;20793;-85
2021/08/11 05:51:24;;;;;;;12.60;6.27;;;15.70;97.30;;;;;;5052258;28;20593;-85
2021/08/11 05:53:50;;;;;;;14.37;6.53;;;15.80;97.30;;;;;;5052403;28;20494;-86
2021/08/11 05:56:16;;;;;;;14.50;6.83;;;15.80;97.30;;;;;;5035998;28;20183;-85
2021/08/11 05:58:41;;;;;;;15.63;7.13;;;15.90;97.30;;;;;;5052659;28;20267;-86
2021/08/11 06:01:07;;;;;;;13.07;6.20;;;15.90;97.30;;;;;;5052738;28;20557;-86
2021/08/11 06:03:32;;;;;;;10.33;5.40;;;15.90;97.30;;;;;;5052743;28;20188;-86
2021/08/11 06:05:58;;;;;;;15.40;6.43;;;15.90;97.30;;;;;;5052723;28;20255;-86
2021/08/11 06:08:23;;;;;;;15.93;6.80;;;16.00;97.30;;;;;;5052522;28;20207;-86
2021/08/11 06:10:49;;;;;;;12.30;6.40;;;16.00;97.30;;;;;;5052683;28;20176;-85
2021/08/11 06:13:14;;;;;;;12.83;6.50;;;16.10;97.30;;;;;;5052688;28;20184;-86
2021/08/11 06:15:40;;;;;;;11.10;6.00;;;16.20;97.30;;;;;;5069214;28;20234;-86
2021/08/11 06:18:06;;;;;;;14.37;6.90;;;16.20;97.30;;;;;;5048615;28;20320;-86
2021/08/11 06:20:31;;;;;;;13.67;7.40;;;16.30;97.30;;;;;;5052344;28;20692;-86
2021/08/11 06:22:57;;;;;;;12.57;7.13;;;16.30;97.30;;;;;;5034997;28;20172;-86
2021/08/11 06:25:22;;;;;;;16.57;7.13;;;16.40;97.30;;;;;;5052260;28;20212;-86
2021/08/11 06:27:48;;;;;;;11.00;6.77;;;16.50;97.30;;;;;;5046312;28;20223;-87
2021/08/11 06:30:14;;;;;;;16.20;8.20;;;16.50;97.30;;;;;;5035855;28;20179;-86
2021/08/11 06:32:40;;;;;;;11.20;6.40;;;16.60;97.30;;;;;;5035828;28;20175;-86
2021/08/11 06:35:06;;;;;;;13.40;7.10;;;16.60;97.30;;;;;;5035846;28;20493;-85
2021/08/11 06:37:32;;;;;;;12.93;6.50;;;16.70;97.30;;;;;;5058294;28;20211;-86
2021/08/11 06:39:57;;;;;;;13.27;6.50;;;16.70;97.30;;;;;;5055763;28;20413;-86
2021/08/11 06:42:23;;;;;;;12.07;6.50;;;16.80;97.30;;;;;;5055950;28;20175;-85
2021/08/11 06:44:49;;;;;;;13.63;7.33;;;16.80;97.30;;;;;;5054819;28;20234;-86
2021/08/11 06:47:14;;;;;;;15.93;8.23;;;16.90;97.30;;;;;;5055511;28;20197;-86
2021/08/11 06:49:40;;;;;;;14.73;6.50;;;17.00;97.30;;;;;;5055249;28;20691;-85
2021/08/11 06:52:05;;;;;;;12.43;6.90;;;17.00;97.30;;;;;;5058372;28;20578;-86
2021/08/11 06:54:31;;;;;;;13.67;6.80;;;17.10;97.30;;;;;;5077790;28;20201;-85
2021/08/11 06:56:57;;;;;;;14.20;7.67;;;17.10;97.30;;;;;;5059493;28;20171;-86
2021/08/11 06:59:22;;;;;;;14.73;8.10;;;17.10;97.30;;;;;;5058407;28;20191;-86
2021/08/11 07:01:48;;;;;;;16.10;8.30;;;17.10;97.30;;;;;;5059347;28;20589;-86
2021/08/11 07:04:13;;;;;;;13.50;7.07;;;17.10;97.30;;;;;;5076138;28;20275;-85
2021/08/11 07:06:40;;;;;;;17.73;7.80;;;17.20;97.30;;;;;;5058651;28;20230;-84
2021/08/11 07:09:06;;;;;;;16.80;8.80;;;17.30;97.30;;;;;;5058916;28;20221;-84
2021/08/11 07:11:32;;;;;;;14.10;8.03;;;17.40;97.30;;;;;;5058834;28;20409;-84
2021/08/11 07:13:58;;;;;;;14.93;8.03;;;17.40;97.30;;;;;;5058288;28;20414;-84
2021/08/11 07:16:23;;;;;;;18.73;9.00;;;17.40;97.30;;;;;;5058001;28;20179;-84
2021/08/11 07:18:49;;;;;;;18.67;10.23;;;17.50;97.30;;;;;;5058675;28;20202;-85
2021/08/11 07:21:14;;;;;;;20.30;9.10;;;17.60;97.30;;;;;;5059254;28;20269;-84
2021/08/11 07:23:40;;;;;;;18.50;8.67;;;17.70;97.30;;;;;;5074767;28;20187;-85
2021/08/11 07:26:05;;;;;;;15.70;8.50;;;17.80;97.30;;;;;;5038858;28;20723;-85
2021/08/11 07:28:31;;;;;;;16.23;8.63;;;17.90;97.30;;;;;;5038677;28;20247;-85
2021/08/11 07:30:57;;;;;;;12.97;7.80;;;18.00;97.30;;;;;;5038654;28;20175;-85
2021/08/11 07:33:24;;;;;;;20.43;7.87;;;18.20;97.30;;;;;;5038177;28;20190;-85
2021/08/11 07:35:50;;;;;;;13.20;7.70;;;18.30;97.30;;;;;;5056656;28;20563;-85
2021/08/11 07:38:15;;;;;;;13.43;7.20;;;18.30;97.30;;;;;;5058394;28;20430;-85
2021/08/11 07:40:42;;;;;;;17.63;7.77;;;18.20;97.30;;;;;;5058533;28;20281;-85
2021/08/11 07:43:08;;;;;;;18.80;9.30;;;18.20;97.30;;;;;;5058705;28;20456;-86
2021/08/11 07:45:34;;;;;;;23.03;9.60;;;18.20;97.30;;;;;;5058326;28;20500;-86
2021/08/11 07:48:00;;;;;;;12.50;6.90;;;18.30;97.30;;;;;;5058447;28;20691;-86
2021/08/11 07:50:28;;;;;;;14.37;7.93;;;18.50;97.30;;;;;;5058823;28;20199;-87
2021/08/11 07:52:54;;;;;;;18.00;7.80;;;18.60;97.30;;;;;;5058479;28;20445;-86
2021/08/11 07:55:20;;;;;;;12.30;7.27;;;18.50;97.30;;;;;;5058867;28;20445;-86
2021/08/11 07:57:46;;;;;;;14.57;5.97;;;18.50;97.30;;;;;;5058560;28;20807;-86
2021/08/11 08:00:14;;;;;;;7.40;6.07;;;18.60;97.30;;;;;;5076027;28;20797;-86
2021/08/11 08:02:39;;;;;;;11.10;6.43;;;18.60;97.30;;;;;;5057744;28;20182;-86
2021/08/11 08:05:06;;;;;;;8.33;5.57;;;18.70;97.30;;;;;;5057678;28;20457;-85
2021/08/11 08:07:31;;;;;;;9.10;6.10;;;18.80;97.30;;;;;;5057014;28;20187;-85
2021/08/11 08:09:57;;;;;;;10.17;5.87;;;18.80;97.30;;;;;;5057391;28;20494;-84
2021/08/11 08:12:22;;;;;;;8.47;5.80;;;18.80;97.30;;;;;;5057608;28;20592;-85
2021/08/11 08:14:48;;;;;;;17.90;6.97;;;18.80;97.30;;;;;;5057438;28;20201;-85
2021/08/11 08:17:14;;;;;;;9.40;6.57;;;18.80;97.30;;;;;;5056058;28;20175;-85
2021/08/11 08:19:39;;;;;;;10.43;5.50;;;18.80;97.30;;;;;;5057453;28;20203;-85
2021/08/11 08:22:05;;;;;;;12.90;6.17;;;18.90;97.30;;;;;;5057629;28;20194;-85
2021/08/11 08:24:32;;;;;;;9.80;6.90;;;19.00;97.30;;;;;;5057233;28;20269;-86
2021/08/11 08:27:00;;;;;;;14.40;6.40;;;19.10;97.30;;;;;;5057753;28;20586;-84
2021/08/11 08:29:25;;;;;;;8.70;5.83;;;19.30;97.30;;;;;;5057236;28;20502;-85
2021/08/11 08:31:51;;;;;;;9.83;6.53;;;19.30;97.30;;;;;;5056881;28;20500;-85
2021/08/11 08:34:16;;;;;;;8.60;5.33;;;19.40;97.30;;;;;;5057243;28;20168;-84
2021/08/11 08:36:42;;;;;;;9.70;5.60;;;19.40;97.30;;;;;;5048827;28;20203;-84
2021/08/11 08:39:07;;;;;;;11.60;6.00;;;19.40;97.30;;;;;;5037013;28;20691;-85
2021/08/11 08:41:35;;;;;;;11.17;6.10;;;19.40;97.30;;;;;;5053281;28;20692;-85
2021/08/11 08:44:01;;;;;;;7.53;3.93;;;19.50;97.30;;;;;;5053481;28;20207;-85
2021/08/11 08:46:27;;;;;;;8.70;5.70;;;19.70;97.30;;;;;;5053531;28;20450;-85
2021/08/11 08:48:54;;;;;;;9.73;5.47;;;19.70;97.30;;;;;;5070024;28;20456;-85
2021/08/11 08:51:22;;;;;;;10.13;5.07;;;19.70;97.30;;;;;;5070521;28;20465;-85
2021/08/11 08:53:48;;;;;;;10.83;5.17;;;19.80;97.30;;;;;;5070106;28;20422;-85
2021/08/11 08:56:14;;;;;;;10.83;6.20;;;20.00;97.30;;;;;;5053388;28;20463;-85
2021/08/11 08:58:40;;;;;;;9.40;4.90;;;20.10;97.30;;;;;;5053321;28;20199;-84
2021/08/11 09:01:06;;;;;;;6.53;4.67;;;20.10;97.30;;;;;;5070039;28;20183;-85
2021/08/11 09:03:32;;;;;;;10.20;4.60;;;20.10;97.30;;;;;;5054337;28;20434;-85
2021/08/11 09:05:58;;;;;;;5.50;4.00;;;20.10;97.30;;;;;;5069985;28;20533;-85
2021/08/11 09:08:23;;;;;;;8.13;4.93;;;20.30;97.30;;;;;;5053105;28;20196;-85
2021/08/11 09:10:49;;;;;;;9.47;4.50;;;20.50;97.30;;;;;;5053721;28;20180;-84
2021/08/11 09:13:20;;;;;;;9.50;4.47;;;20.70;97.30;;;;;;5052746;28;20236;-85
2021/08/11 09:15:51;;;;;;;7.80;4.97;;;20.80;97.30;;;;;;5053223;28;20202;-84
2021/08/11 09:18:18;;;;;;;9.30;5.10;;;20.90;97.30;;;;;;5052526;28;20454;-84
2021/08/11 09:21:10;;;;;;;10.00;4.37;;;20.80;97.10;;;;;;5052489;28;20422;-85
2021/08/11 09:23:46;;;;;;;11.53;4.80;;;20.80;96.50;;;;;;5053354;28;20422;-84
2021/08/11 09:26:16;;;;;;;5.57;3.90;;;20.80;96.10;;;;;;5053286;28;20982;-84
2021/08/11 09:28:44;;;;;;;6.87;4.07;;;20.70;96.60;;;;;;5052899;28;20561;-85
2021/08/11 09:31:20;;;;;;;6.27;3.93;;;20.70;96.70;;;;;;5052095;28;20454;-84
2021/08/11 09:34:00;;;;;;;6.77;3.60;;;20.70;96.00;;;;;;5052689;28;20410;-85
2021/08/11 09:36:26;;;;;;;7.10;3.33;;;20.80;96.50;;;;;;5064778;23;20935;-78
2021/08/11 09:39:04;;;;;;;6.13;3.47;;;20.90;94.30;;;;;;5053882;28;20451;-78
2021/08/11 09:41:33;;;;;;;7.17;3.90;;;20.90;93.20;;;;;;5054199;28;20397;-78
2021/08/11 09:44:11;;;;;;;6.63;3.47;;;20.90;93.00;;;;;;5053987;28;20921;-77
2021/08/11 09:46:40;;;;;;;5.77;3.73;;;20.80;93.40;;;;;;5054128;28;20460;-78
2021/08/11 09:49:14;;;;;;;5.90;3.97;;;20.80;92.90;;;;;;5053682;28;20503;-78
2021/08/11 09:51:58;;;;;;;4.20;3.27;;;20.70;93.60;;;;;;5054055;28;20471;-77
2021/08/11 09:54:24;;;;;;;7.73;3.80;;;20.60;93.10;;;;;;5054143;28;20441;-77
2021/08/11 09:56:50;;;;;;;7.70;4.30;;;20.70;93.20;;;;;;5053626;28;20413;-80
2021/08/11 09:59:16;;;;;;;6.73;3.57;;;20.70;93.50;;;;;;5036048;28;20461;-79
2021/08/11 10:01:42;;;;;;;6.57;3.40;;;20.70;94.50;;;;;;5056999;28;20171;-79
2021/08/11 10:04:08;;;;;;;5.90;3.53;;;20.90;94.20;;;;;;5070355;28;20195;-78
2021/08/11 10:06:42;;;;;;;8.13;3.57;;;21.30;92.70;;;;;;5053819;28;20214;-79
2021/08/11 10:09:25;;;;;;;8.57;4.07;;;21.50;91.90;;;;;;5035113;28;20448;-79
2021/08/11 10:11:58;;;;;;;9.00;3.70;;;21.80;92.40;;;;;;5052063;28;20800;-79
2021/08/11 10:14:27;;;;;;;6.50;3.57;;;22.00;91.40;;;;;;5054445;28;20459;-79
2021/08/11 10:16:55;;;;;;;7.77;3.70;;;22.10;91.40;;;;;;5050250;28;20505;-79
2021/08/11 10:19:28;;;;;;;12.53;3.90;;;22.20;91.90;;;;;;5056610;28;20438;-79
2021/08/11 10:22:02;;;;;;;7.43;3.73;;;22.40;90.10;;;;;;5074682;28;20418;-79
2021/08/11 10:24:29;;;;;;;9.20;4.80;;;22.50;91.40;;;;;;5058970;28;20436;-80
2021/08/11 10:26:56;;;;;;;4.67;3.27;;;22.50;90.10;;;;;;5057415;28;20441;-79
2021/08/11 10:29:23;;;;;;;9.37;3.83;;;22.30;89.30;;;;;;5058574;28;20455;-79
2021/08/11 10:31:50;;;;;;;4.33;3.20;;;22.20;90.60;;;;;;5040118;28;20461;-80
2021/08/11 10:34:17;;;;;;;6.30;3.37;;;22.10;87.70;;;;;;5040154;28;20429;-80
2021/08/11 10:36:44;;;;;;;5.43;3.00;;;22.00;89.00;;;;;;5039538;28;20471;-78
2021/08/11 10:39:10;;;;;;;6.97;3.33;;;22.00;89.60;;;;;;5037736;28;20446;-77
2021/08/11 10:41:38;;;;;;;6.40;3.63;;;21.80;88.70;;;;;;5052112;28;20425;-78
2021/08/11 10:44:05;;;;;;;6.63;2.90;;;21.70;89.60;;;;;;5055394;28;20939;-79
2021/08/11 10:46:46;;;;;;;6.43;3.27;;;21.70;87.00;;;;;;5050356;28;20461;-78
2021/08/11 10:49:16;;;;;;;6.43;3.30;;;21.60;87.90;;;;;;5039787;28;20452;-78
2021/08/11 10:51:47;;;;;;;10.00;3.83;;;21.60;88.20;;;;;;5075948;28;20413;-78
2021/08/11 10:54:13;;;;;;;5.67;3.70;;;21.60;88.00;;;;;;5049214;28;20833;-79
2021/08/11 10:56:49;;;;;;;4.77;3.20;;;21.60;89.40;;;;;;5037171;28;20445;-78
2021/08/11 10:59:32;;;;;;;8.20;3.53;;;21.70;90.00;;;;;;5038179;28;20449;-80
2021/08/11 11:01:59;;;;;;;3.93;2.87;;;21.60;89.20;;;;;;5036669;28;20859;-78
2021/08/11 11:04:40;;;;;;;5.50;3.50;;;21.50;90.20;;;;;;5055562;28;20956;-78
2021/08/11 11:07:20;;;;;;;8.60;3.87;;;21.50;90.50;;;;;;5037024;28;20963;-78
2021/08/11 11:09:48;;;;;;;8.20;3.97;;;21.50;89.90;;;;;;5035489;28;20434;-79
2021/08/11 11:12:16;;;;;;;6.73;4.23;;;21.60;90.00;;;;;;5037853;28;20419;-79
2021/08/11 11:14:53;;;;;;;7.57;4.33;;;21.70;89.50;;;;;;5037804;28;20426;-79
2021/08/11 11:17:20;;;;;;;10.57;4.07;;;21.80;88.90;;;;;;5046273;28;20417;-78
2021/08/11 11:20:08;;;;;;;7.00;3.87;;;21.90;90.60;;;;;;5075162;28;20520;-79
2021/08/11 11:22:46;;;;;;;5.93;4.57;;;22.00;89.70;;;;;;5056995;28;20868;-78
2021/08/11 11:25:17;;;;;;;6.20;5.20;;;22.00;89.60;;;;;;5075795;28;20460;-79
2021/08/11 11:27:52;;;;;;;10.50;4.10;;;22.10;90.20;;;;;;5054456;28;20946;-79
2021/08/11 11:30:27;;;;;;;8.60;4.60;;;22.40;91.10;;;;;;5057464;28;20429;-80
2021/08/11 11:33:28;;;;;;;5.90;3.70;;;22.70;89.60;;;;;;5056138;28;20795;-78
2021/08/11 11:36:20;;;;;;;4.97;3.53;;;22.90;87.30;;;;;;5056163;28;20836;-78
2021/08/11 11:39:06;;;;;;;5.40;4.30;;;23.10;89.10;;;;;;5039496;28;20452;-78
2021/08/11 11:41:32;;;;;;;5.50;3.90;;;23.20;89.60;;;;;;5041120;28;20422;-79
2021/08/11 11:44:37;;;;;;;8.93;4.27;;;23.30;87.50;;;;;;5040840;28;20462;-78
2021/08/11 11:47:02;;;;;;;5.47;3.70;;;23.30;87.30;;;;;;5069676;28;20441;-79
2021/08/11 11:49:28;;;;;;;9.40;4.60;;;23.20;87.00;;;;;;5079427;28;20437;-79
2021/08/11 11:51:54;;;;;;;17.63;5.10;;;23.30;91.00;;;;;;5061160;28;20190;-79
2021/08/11 11:54:20;;;;;;;8.97;4.23;;;23.40;89.00;;;;;;5061474;28;20175;-79
2021/08/11 11:56:49;;;;;;;8.17;4.63;;;23.60;86.30;;;;;;5052626;28;20458;-79
2021/08/11 11:59:15;;;;;;;6.87;4.73;;;23.70;87.60;;;;;;5040847;28;20203;-78
2021/08/11 12:01:41;;;;;;;6.67;4.60;;;23.80;87.10;;;;;;5040884;28;20507;-78
2021/08/11 12:04:09;;;;;;;5.80;4.60;;;23.90;86.00;;;;;;5043899;28;20668;-79
2021/08/11 12:06:41;;;;;;;7.70;4.60;;;23.90;85.00;;;;;;5058740;28;20191;-79
2021/08/11 12:09:07;;;;;;;6.40;3.90;;;24.00;85.60;;;;;;5059337;28;20442;-79
2021/08/11 12:11:36;;;;;;;9.00;5.00;;;24.00;87.10;;;;;;5041900;28;20448;-79
2021/08/11 12:14:03;;;;;;;7.43;4.90;;;24.20;89.20;;;;;;5078384;28;20175;-78
2021/08/11 12:16:41;;;;;;;10.23;4.50;;;24.30;87.40;;;;;;5055421;28;20481;-79
2021/08/11 12:19:15;;;;;;;5.87;4.40;;;24.30;85.10;;;;;;5060199;28;20453;-79
2021/08/11 12:21:42;;;;;;;8.00;4.27;;;24.20;84.10;;;;;;5077661;28;20427;-80
2021/08/11 12:24:07;;;;;;;6.10;4.20;;;24.10;86.30;;;;;;5060123;28;20448;-78
2021/08/11 12:26:33;;;;;;;9.40;5.07;;;24.00;85.70;;;;;;5050406;28;20466;-78
2021/08/11 12:29:00;;;;;;;6.33;5.17;;;24.10;85.50;;;;;;5038516;28;20478;-78
2021/08/11 12:31:28;;;;;;;8.93;4.60;;;24.10;85.90;;;;;;5039021;28;20417;-79
2021/08/11 12:34:01;;;;;;;5.20;4.20;;;24.10;84.00;;;;;;5057101;28;20414;-77
2021/08/11 12:36:35;;;;;;;7.17;4.37;;;24.20;85.50;;;;;;5038701;28;20816;-78
2021/08/11 12:39:03;;;;;;;7.83;4.43;;;24.30;86.00;;;;;;5039691;28;20515;-79
2021/08/11 12:41:31;;;;;;;7.27;4.43;;;24.40;85.90;;;;;;5058104;28;20459;-79
2021/08/11 12:43:58;;;;;;;9.53;4.40;;;24.60;85.70;;;;;;5039285;28;20426;-79
2021/08/11 12:46:40;;;;;;;5.27;4.50;;;24.60;83.00;;;;;;5038204;28;20845;-79
2021/08/11 12:49:38;;;;;;;5.60;4.17;;;24.60;85.00;;;;;;5056082;28;20427;-79